sensor_id;sensor_type;location;lat;lon;timestamp;pressure;altitude;pressure_sealevel;temperature;humidity
57000;BME280;42891;50.006;21.964;2022-09-14T00:03:39;98209.63;;;16.01;68.47
57000;BME280;42891;50.006;21.964;2022-09-14T00:07:39;98212.47;;;15.99;67.10
57000;BME280;42891;50.006;21.964;2022-09-14T00:11:39;98210.06;;;16.05;67.49
57000;BME280;42891;50.006;21.964;2022-09-14T00:15:41;98206.56;;;16.04;67.88
57000;BME280;42891;50.006;21.964;2022-09-14T00:19:44;98200.88;;;16.07;68.69
57000;BME280;42891;50.006;21.964;2022-09-14T00:23:44;98198.78;;;16.02;67.36
57000;BME280;42891;50.006;21.964;2022-09-14T00:27:44;98202.25;;;16.03;68.83
57000;BME280;42891;50.006;21.964;2022-09-14T00:31:45;98198.97;;;16.01;67.70
57000;BME280;42891;50.006;21.964;2022-09-14T00:35:45;98186.59;;;15.93;67.41
57000;BME280;42891;50.006;21.964;2022-09-14T00:39:45;98199.16;;;15.99;68.62
57000;BME280;42891;50.006;21.964;2022-09-14T00:48:09;98199.59;;;16.03;67.57
57000;BME280;42891;50.006;21.964;2022-09-14T00:52:14;98199.41;;;16.05;69.52
57000;BME280;42891;50.006;21.964;2022-09-14T00:56:15;98182.53;;;15.97;68.92
57000;BME280;42891;50.006;21.964;2022-09-14T01:00:20;98185.97;;;15.91;67.56
57000;BME280;42891;50.006;21.964;2022-09-14T01:04:20;98188.44;;;15.93;67.49
57000;BME280;42891;50.006;21.964;2022-09-14T01:33:56;98174.56;;;15.97;66.88
57000;BME280;42891;50.006;21.964;2022-09-14T01:42:11;98173.75;;;15.97;67.03
57000;BME280;42891;50.006;21.964;2022-09-14T01:46:15;98145.78;;;15.86;66.91
57000;BME280;42891;50.006;21.964;2022-09-14T01:50:25;98168.84;;;16.00;67.21
57000;BME280;42891;50.006;21.964;2022-09-14T01:54:38;98167.16;;;15.93;66.91
57000;BME280;42891;50.006;21.964;2022-09-14T01:58:47;98161.84;;;15.93;66.75
57000;BME280;42891;50.006;21.964;2022-09-14T02:02:57;98150.78;;;15.96;67.02
57000;BME280;42891;50.006;21.964;2022-09-14T02:06:58;98158.34;;;15.92;67.29
57000;BME280;42891;50.006;21.964;2022-09-14T02:10:59;98154.47;;;15.95;67.17
57000;BME280;42891;50.006;21.964;2022-09-14T02:15:00;98153.44;;;15.96;67.42
57000;BME280;42891;50.006;21.964;2022-09-14T02:19:01;98143.53;;;15.83;67.33
57000;BME280;42891;50.006;21.964;2022-09-14T02:23:02;98130.22;;;15.83;67.62
57000;BME280;42891;50.006;21.964;2022-09-14T02:27:02;98147.88;;;15.91;67.43
57000;BME280;42891;50.006;21.964;2022-09-14T02:31:11;98148.59;;;15.99;67.75
57000;BME280;42891;50.006;21.964;2022-09-14T02:43:54;98152.69;;;15.80;67.89
57000;BME280;42891;50.006;21.964;2022-09-14T02:56:29;98143.53;;;15.83;68.69
57000;BME280;42891;50.006;21.964;2022-09-14T03:00:33;98126.53;;;15.84;69.22
57000;BME280;42891;50.006;21.964;2022-09-14T03:04:35;98128.91;;;15.79;69.49
57000;BME280;42891;50.006;21.964;2022-09-14T03:08:35;98118.09;;;15.80;70.16
57000;BME280;42891;50.006;21.964;2022-09-14T03:12:37;98120.13;;;15.78;69.54
57000;BME280;42891;50.006;21.964;2022-09-14T03:16:38;98108.28;;;15.81;69.92
57000;BME280;42891;50.006;21.964;2022-09-14T03:20:38;98108.09;;;15.82;70.80
57000;BME280;42891;50.006;21.964;2022-09-14T03:24:38;98108.72;;;15.84;70.89
57000;BME280;42891;50.006;21.964;2022-09-14T03:28:39;98110.03;;;15.74;70.58
57000;BME280;42891;50.006;21.964;2022-09-14T03:32:39;98120.13;;;15.78;71.33
57000;BME280;42891;50.006;21.964;2022-09-14T03:36:40;98125.59;;;15.77;71.37
57000;BME280;42891;50.006;21.964;2022-09-14T03:40:40;98134.16;;;15.72;71.63
57000;BME280;42891;50.006;21.964;2022-09-14T03:44:40;98125.44;;;15.57;71.18
57000;BME280;42891;50.006;21.964;2022-09-14T03:48:41;98133.03;;;15.60;70.90
57000;BME280;42891;50.006;21.964;2022-09-14T03:52:41;98141.66;;;15.62;70.36
57000;BME280;42891;50.006;21.964;2022-09-14T03:56:42;98119.03;;;15.51;70.86
57000;BME280;42891;50.006;21.964;2022-09-14T04:00:42;98130.75;;;15.57;71.03
57000;BME280;42891;50.006;21.964;2022-09-14T04:04:42;98117.56;;;15.48;71.75
57000;BME280;42891;50.006;21.964;2022-09-14T04:08:44;98130.09;;;15.55;71.21
57000;BME280;42891;50.006;21.964;2022-09-14T04:12:44;98100.34;;;15.44;71.66
57000;BME280;42891;50.006;21.964;2022-09-14T04:16:45;98117.19;;;15.51;72.68
57000;BME280;42891;50.006;21.964;2022-09-14T04:20:53;98115.72;;;15.49;73.27
57000;BME280;42891;50.006;21.964;2022-09-14T04:24:54;98116.75;;;15.48;73.35
57000;BME280;42891;50.006;21.964;2022-09-14T04:28:55;98124.66;;;15.41;73.13
57000;BME280;42891;50.006;21.964;2022-09-14T04:32:55;98120.53;;;15.39;73.95
57000;BME280;42891;50.006;21.964;2022-09-14T04:36:56;98121.34;;;15.39;73.83
57000;BME280;42891;50.006;21.964;2022-09-14T04:40:56;98128.69;;;15.37;73.82
57000;BME280;42891;50.006;21.964;2022-09-14T04:44:57;98115.34;;;15.30;74.16
57000;BME280;42891;50.006;21.964;2022-09-14T04:48:57;98112.66;;;15.30;75.06
57000;BME280;42891;50.006;21.964;2022-09-14T04:52:58;98121.72;;;15.36;76.01
57000;BME280;42891;50.006;21.964;2022-09-14T04:56:58;98122.53;;;15.37;75.25
57000;BME280;42891;50.006;21.964;2022-09-14T05:01:03;98099.69;;;15.21;75.83
57000;BME280;42891;50.006;21.964;2022-09-14T05:05:04;98123.19;;;15.39;75.70
57000;BME280;42891;50.006;21.964;2022-09-14T05:09:07;98126.31;;;15.42;75.91
57000;BME280;42891;50.006;21.964;2022-09-14T05:13:08;98122.81;;;15.42;74.95
57000;BME280;42891;50.006;21.964;2022-09-14T05:17:09;98128.59;;;15.45;74.78
57000;BME280;42891;50.006;21.964;2022-09-14T05:21:13;98124.84;;;15.40;73.62
57000;BME280;42891;50.006;21.964;2022-09-14T05:25:14;98135.56;;;15.46;73.39
57000;BME280;42891;50.006;21.964;2022-09-14T05:29:17;98129.84;;;15.49;72.93
57000;BME280;42891;50.006;21.964;2022-09-14T05:33:17;98122.69;;;15.50;72.99
57000;BME280;42891;50.006;21.964;2022-09-14T05:37:18;98123.16;;;15.54;72.33
57000;BME280;42891;50.006;21.964;2022-09-14T05:41:18;98112.94;;;15.57;71.41
57000;BME280;42891;50.006;21.964;2022-09-14T05:45:18;98106.59;;;15.58;71.96
57000;BME280;42891;50.006;21.964;2022-09-14T05:49:19;98108.34;;;15.66;72.17
57000;BME280;42891;50.006;21.964;2022-09-14T05:53:19;98080.78;;;15.52;71.80
57000;BME280;42891;50.006;21.964;2022-09-14T05:57:19;98103.63;;;15.68;72.14
57000;BME280;42891;50.006;21.964;2022-09-14T06:01:23;98095.25;;;15.71;71.77
57000;BME280;42891;50.006;21.964;2022-09-14T06:05:24;98095.50;;;15.76;71.60
57000;BME280;42891;50.006;21.964;2022-09-14T06:09:24;98099.28;;;15.82;72.14
57000;BME280;42891;50.006;21.964;2022-09-14T06:13:25;98093.94;;;15.82;71.56
57000;BME280;42891;50.006;21.964;2022-09-14T06:17:28;98102.06;;;15.95;72.18
57000;BME280;42891;50.006;21.964;2022-09-14T06:21:33;98111.63;;;15.90;71.43
57000;BME280;42891;50.006;21.964;2022-09-14T06:25:33;98092.41;;;15.94;71.61
57000;BME280;42891;50.006;21.964;2022-09-14T06:29:34;98090.53;;;15.88;70.82
57000;BME280;42891;50.006;21.964;2022-09-14T06:33:34;98086.69;;;15.97;71.53
57000;BME280;42891;50.006;21.964;2022-09-14T06:37:35;98109.91;;;16.04;71.51
57000;BME280;42891;50.006;21.964;2022-09-14T06:41:36;98107.84;;;16.06;71.35
57000;BME280;42891;50.006;21.964;2022-09-14T06:45:36;98103.78;;;16.10;71.52
57000;BME280;42891;50.006;21.964;2022-09-14T06:49:36;98100.56;;;16.14;71.17
57000;BME280;42891;50.006;21.964;2022-09-14T06:53:36;98116.69;;;16.34;70.67
57000;BME280;42891;50.006;21.964;2022-09-14T06:57:37;98088.97;;;16.29;70.78
57000;BME280;42891;50.006;21.964;2022-09-14T07:01:37;98125.72;;;16.40;70.63
57000;BME280;42891;50.006;21.964;2022-09-14T07:05:38;98116.97;;;16.46;69.88
57000;BME280;42891;50.006;21.964;2022-09-14T07:09:38;98114.13;;;16.54;70.39
57000;BME280;42891;50.006;21.964;2022-09-14T07:13:39;98110.09;;;16.65;70.38
57000;BME280;42891;50.006;21.964;2022-09-14T07:17:44;98110.88;;;16.59;69.71
57000;BME280;42891;50.006;21.964;2022-09-14T07:21:44;98116.28;;;16.73;69.49
57000;BME280;42891;50.006;21.964;2022-09-14T07:25:44;98130.84;;;16.77;69.15
57000;BME280;42891;50.006;21.964;2022-09-14T07:29:45;98120.03;;;16.85;69.23
57000;BME280;42891;50.006;21.964;2022-09-14T07:33:46;98134.31;;;17.06;69.47
57000;BME280;42891;50.006;21.964;2022-09-14T07:37:47;98102.06;;;16.94;69.07
57000;BME280;42891;50.006;21.964;2022-09-14T07:41:47;98130.88;;;17.18;68.10
57000;BME280;42891;50.006;21.964;2022-09-14T07:45:48;98132.78;;;17.31;68.15
57000;BME280;42891;50.006;21.964;2022-09-14T07:49:48;98132.41;;;17.41;67.56
57000;BME280;42891;50.006;21.964;2022-09-14T07:53:49;98130.97;;;17.59;68.62
57000;BME280;42891;50.006;21.964;2022-09-14T07:57:49;98130.38;;;17.63;67.93
57000;BME280;42891;50.006;21.964;2022-09-14T08:01:49;98132.25;;;17.76;67.34
57000;BME280;42891;50.006;21.964;2022-09-14T08:05:57;98126.28;;;17.81;67.77
57000;BME280;42891;50.006;21.964;2022-09-14T08:09:59;98112.94;;;17.81;65.76
57000;BME280;42891;50.006;21.964;2022-09-14T08:14:05;98133.94;;;18.04;66.27
57000;BME280;42891;50.006;21.964;2022-09-14T08:18:05;98126.13;;;18.02;65.27
57000;BME280;42891;50.006;21.964;2022-09-14T08:22:06;98130.66;;;18.15;65.34
57000;BME280;42891;50.006;21.964;2022-09-14T08:26:15;98138.25;;;18.25;65.72
57000;BME280;42891;50.006;21.964;2022-09-14T08:30:16;98132.47;;;18.35;65.70
57000;BME280;42891;50.006;21.964;2022-09-14T08:34:17;98128.34;;;18.46;66.29
57000;BME280;42891;50.006;21.964;2022-09-14T08:38:18;98118.09;;;18.49;65.25
57000;BME280;42891;50.006;21.964;2022-09-14T08:42:19;98115.97;;;18.71;65.29
57000;BME280;42891;50.006;21.964;2022-09-14T08:50:43;98114.88;;;19.06;64.52
57000;BME280;42891;50.006;21.964;2022-09-14T08:54:43;98117.88;;;19.16;64.27
57000;BME280;42891;50.006;21.964;2022-09-14T08:59:05;98117.59;;;19.38;64.96
57000;BME280;42891;50.006;21.964;2022-09-14T09:11:22;98100.44;;;19.77;62.48
57000;BME280;42891;50.006;21.964;2022-09-14T09:15:36;98100.25;;;19.72;60.90
57000;BME280;42891;50.006;21.964;2022-09-14T09:19:46;98097.34;;;19.81;63.02
57000;BME280;42891;50.006;21.964;2022-09-14T09:23:48;98096.53;;;19.80;61.78
57000;BME280;42891;50.006;21.964;2022-09-14T09:28:09;98087.69;;;19.80;61.22
57000;BME280;42891;50.006;21.964;2022-09-14T09:32:17;98068.72;;;19.81;61.86
57000;BME280;42891;50.006;21.964;2022-09-14T09:36:18;98084.25;;;19.98;62.67
57000;BME280;42891;50.006;21.964;2022-09-14T09:40:24;98094.25;;;20.09;61.71
57000;BME280;42891;50.006;21.964;2022-09-14T09:44:26;98085.22;;;20.03;61.03
57000;BME280;42891;50.006;21.964;2022-09-14T09:48:47;98091.41;;;20.22;61.42
57000;BME280;42891;50.006;21.964;2022-09-14T09:52:58;98088.44;;;20.12;60.49
57000;BME280;42891;50.006;21.964;2022-09-14T09:57:04;98090.22;;;20.18;60.84
57000;BME280;42891;50.006;21.964;2022-09-14T10:01:17;98090.03;;;20.20;60.44
57000;BME280;42891;50.006;21.964;2022-09-14T10:05:26;98097.00;;;20.21;61.14
57000;BME280;42891;50.006;21.964;2022-09-14T10:09:28;98091.22;;;20.24;61.70
57000;BME280;42891;50.006;21.964;2022-09-14T10:13:29;98087.94;;;20.22;60.60
57000;BME280;42891;50.006;21.964;2022-09-14T10:17:30;98092.31;;;20.16;60.87
57000;BME280;42891;50.006;21.964;2022-09-14T10:21:31;98092.91;;;20.18;60.31
57000;BME280;42891;50.006;21.964;2022-09-14T10:25:31;98086.84;;;20.30;61.04
57000;BME280;42891;50.006;21.964;2022-09-14T10:29:38;98091.69;;;20.39;61.29
57000;BME280;42891;50.006;21.964;2022-09-14T10:33:41;98094.59;;;20.38;60.54
57000;BME280;42891;50.006;21.964;2022-09-14T10:42:35;98093.34;;;20.59;59.98
57000;BME280;42891;50.006;21.964;2022-09-14T10:59:59;98069.88;;;21.10;59.33
57000;BME280;42891;50.006;21.964;2022-09-14T11:08:33;98079.03;;;21.33;57.55
57000;BME280;42891;50.006;21.964;2022-09-14T11:25:00;98071.47;;;21.72;57.34
57000;BME280;42891;50.006;21.964;2022-09-14T11:29:19;98060.16;;;21.82;55.97
57000;BME280;42891;50.006;21.964;2022-09-14T11:33:36;98060.03;;;21.88;56.39
57000;BME280;42891;50.006;21.964;2022-09-14T11:37:46;98044.97;;;21.87;56.47
57000;BME280;42891;50.006;21.964;2022-09-14T11:41:58;98042.16;;;22.18;56.36
57000;BME280;42891;50.006;21.964;2022-09-14T11:46:09;98019.50;;;22.13;55.82
57000;BME280;42891;50.006;21.964;2022-09-14T11:50:21;98039.25;;;22.19;55.15
57000;BME280;42891;50.006;21.964;2022-09-14T11:54:22;98035.16;;;22.28;55.83
57000;BME280;42891;50.006;21.964;2022-09-14T11:58:25;98034.22;;;22.11;55.39
57000;BME280;42891;50.006;21.964;2022-09-14T12:10:29;98024.38;;;22.52;54.38
57000;BME280;42891;50.006;21.964;2022-09-14T12:14:36;98013.56;;;22.76;54.41
57000;BME280;42891;50.006;21.964;2022-09-14T12:18:41;98023.69;;;22.86;53.13
57000;BME280;42891;50.006;21.964;2022-09-14T12:22:42;98014.34;;;22.88;53.66
57000;BME280;42891;50.006;21.964;2022-09-14T12:26:43;98014.44;;;23.22;53.45
57000;BME280;42891;50.006;21.964;2022-09-14T12:34:45;98012.84;;;23.09;52.54
57000;BME280;42891;50.006;21.964;2022-09-14T12:42:48;98013.56;;;23.34;52.51
57000;BME280;42891;50.006;21.964;2022-09-14T12:46:49;98022.38;;;23.46;51.38
57000;BME280;42891;50.006;21.964;2022-09-14T12:50:51;98023.59;;;23.09;51.60
57000;BME280;42891;50.006;21.964;2022-09-14T13:00:15;98027.59;;;23.07;52.52
57000;BME280;42891;50.006;21.964;2022-09-14T13:04:24;98030.88;;;22.68;53.18
57000;BME280;42891;50.006;21.964;2022-09-14T13:08:25;98048.03;;;22.14;54.43
57000;BME280;42891;50.006;21.964;2022-09-14T13:12:30;98040.63;;;22.10;55.45
57000;BME280;42891;50.006;21.964;2022-09-14T13:16:42;98041.00;;;22.02;56.05
57000;BME280;42891;50.006;21.964;2022-09-14T13:20:54;98028.84;;;21.75;56.47
57000;BME280;42891;50.006;21.964;2022-09-14T13:24:54;98024.63;;;21.56;57.11
57000;BME280;42891;50.006;21.964;2022-09-14T13:29:00;98020.34;;;21.48;57.04
57000;BME280;42891;50.006;21.964;2022-09-14T13:33:02;98024.66;;;21.07;57.94
57000;BME280;42891;50.006;21.964;2022-09-14T13:37:03;98014.84;;;21.01;58.70
57000;BME280;42891;50.006;21.964;2022-09-14T13:41:10;98018.25;;;20.59;59.34
57000;BME280;42891;50.006;21.964;2022-09-14T13:45:11;98011.56;;;20.31;60.23
57000;BME280;42891;50.006;21.964;2022-09-14T13:49:12;97999.72;;;20.20;60.80
57000;BME280;42891;50.006;21.964;2022-09-14T13:57:35;98014.38;;;20.36;61.17
57000;BME280;42891;50.006;21.964;2022-09-14T14:01:38;98019.88;;;20.23;61.98
57000;BME280;42891;50.006;21.964;2022-09-14T14:05:40;98023.25;;;20.37;62.13
57000;BME280;42891;50.006;21.964;2022-09-14T14:09:46;98016.59;;;20.02;62.82
57000;BME280;42891;50.006;21.964;2022-09-14T14:13:50;98022.13;;;20.07;63.20
57000;BME280;42891;50.006;21.964;2022-09-14T14:17:50;98025.66;;;20.01;63.71
57000;BME280;42891;50.006;21.964;2022-09-14T14:21:51;98006.03;;;19.57;65.20
57000;BME280;42891;50.006;21.964;2022-09-14T14:26:05;98014.28;;;19.55;65.91
57000;BME280;42891;50.006;21.964;2022-09-14T14:30:20;98016.50;;;19.58;65.99
57000;BME280;42891;50.006;21.964;2022-09-14T14:34:24;98015.16;;;19.49;68.41
57000;BME280;42891;50.006;21.964;2022-09-14T14:38:25;98016.59;;;19.52;69.04
57000;BME280;42891;50.006;21.964;2022-09-14T14:42:25;98010.31;;;19.07;71.42
57000;BME280;42891;50.006;21.964;2022-09-14T14:46:26;98008.50;;;18.95;73.80
57000;BME280;42891;50.006;21.964;2022-09-14T14:50:29;98013.47;;;18.84;74.72
57000;BME280;42891;50.006;21.964;2022-09-14T14:54:30;97997.84;;;18.29;76.33
57000;BME280;42891;50.006;21.964;2022-09-14T14:58:31;97999.50;;;18.23;77.96
57000;BME280;42891;50.006;21.964;2022-09-14T15:02:31;97995.03;;;18.17;79.73
57000;BME280;42891;50.006;21.964;2022-09-14T15:06:31;97982.94;;;17.81;79.78
57000;BME280;42891;50.006;21.964;2022-09-14T15:10:32;97990.94;;;18.01;80.27
57000;BME280;42891;50.006;21.964;2022-09-14T15:14:32;97976.78;;;17.61;81.19
57000;BME280;42891;50.006;21.964;2022-09-14T15:18:33;98001.41;;;17.69;82.24
57000;BME280;42891;50.006;21.964;2022-09-14T15:22:33;97976.38;;;17.50;81.88
57000;BME280;42891;50.006;21.964;2022-09-14T15:26:35;98005.13;;;17.48;82.19
57000;BME280;42891;50.006;21.964;2022-09-14T15:30:36;97989.13;;;17.28;83.99
57000;BME280;42891;50.006;21.964;2022-09-14T15:34:36;98004.69;;;17.25;84.19
57000;BME280;42891;50.006;21.964;2022-09-14T15:38:37;97997.94;;;17.42;83.18
57000;BME280;42891;50.006;21.964;2022-09-14T15:42:37;97991.97;;;17.40;83.13
57000;BME280;42891;50.006;21.964;2022-09-14T15:46:38;97997.72;;;17.24;83.37
57000;BME280;42891;50.006;21.964;2022-09-14T15:50:41;97984.81;;;17.34;83.29
57000;BME280;42891;50.006;21.964;2022-09-14T15:54:42;97983.97;;;17.47;83.89
57000;BME280;42891;50.006;21.964;2022-09-14T15:58:42;98001.41;;;17.36;84.48
57000;BME280;42891;50.006;21.964;2022-09-14T16:02:43;98004.09;;;17.43;82.82
57000;BME280;42891;50.006;21.964;2022-09-14T16:06:43;97998.78;;;17.56;83.07
57000;BME280;42891;50.006;21.964;2022-09-14T16:10:44;97994.03;;;17.51;82.65
57000;BME280;42891;50.006;21.964;2022-09-14T16:14:44;97990.31;;;17.32;83.40
57000;BME280;42891;50.006;21.964;2022-09-14T16:18:45;98001.75;;;16.93;83.80
57000;BME280;42891;50.006;21.964;2022-09-14T16:22:47;97991.75;;;17.15;83.82
57000;BME280;42891;50.006;21.964;2022-09-14T16:26:48;97981.06;;;17.08;83.48
57000;BME280;42891;50.006;21.964;2022-09-14T16:30:49;97984.75;;;17.07;83.73
57000;BME280;42891;50.006;21.964;2022-09-14T16:34:49;97989.81;;;16.82;84.63
57000;BME280;42891;50.006;21.964;2022-09-14T16:38:51;97994.19;;;16.90;84.70
57000;BME280;42891;50.006;21.964;2022-09-14T16:42:51;97996.16;;;16.81;84.93
57000;BME280;42891;50.006;21.964;2022-09-14T16:46:54;97994.88;;;16.63;85.36
57000;BME280;42891;50.006;21.964;2022-09-14T16:50:56;97987.53;;;16.72;85.48
57000;BME280;42891;50.006;21.964;2022-09-14T16:54:57;97991.03;;;16.79;84.89
57000;BME280;42891;50.006;21.964;2022-09-14T16:58:58;97973.03;;;16.88;84.30
57000;BME280;42891;50.006;21.964;2022-09-14T17:02:59;97988.16;;;16.74;84.68
57000;BME280;42891;50.006;21.964;2022-09-14T17:06:59;98001.09;;;16.84;84.84
57000;BME280;42891;50.006;21.964;2022-09-14T17:11:01;97980.34;;;16.66;84.96
57000;BME280;42891;50.006;21.964;2022-09-14T17:15:03;97980.16;;;16.81;83.98
57000;BME280;42891;50.006;21.964;2022-09-14T17:19:04;97982.47;;;16.91;83.61
57000;BME280;42891;50.006;21.964;2022-09-14T17:23:04;97995.13;;;16.82;83.97
57000;BME280;42891;50.006;21.964;2022-09-14T17:27:06;97998.84;;;16.87;84.15
57000;BME280;42891;50.006;21.964;2022-09-14T17:31:07;97998.28;;;17.06;83.51
57000;BME280;42891;50.006;21.964;2022-09-14T17:35:08;97976.75;;;16.94;83.74
57000;BME280;42891;50.006;21.964;2022-09-14T17:39:09;97983.13;;;17.06;83.32
57000;BME280;42891;50.006;21.964;2022-09-14T17:43:10;97986.78;;;16.92;83.59
57000;BME280;42891;50.006;21.964;2022-09-14T17:47:11;97980.59;;;16.84;83.69
57000;BME280;42891;50.006;21.964;2022-09-14T17:51:16;97960.03;;;16.65;84.78
57000;BME280;42891;50.006;21.964;2022-09-14T17:55:19;97968.88;;;16.72;84.32
57000;BME280;42891;50.006;21.964;2022-09-14T17:59:20;97976.06;;;16.78;84.39
57000;BME280;42891;50.006;21.964;2022-09-14T18:03:20;97984.53;;;16.89;83.97
57000;BME280;42891;50.006;21.964;2022-09-14T18:07:20;97963.72;;;16.64;84.63
57000;BME280;42891;50.006;21.964;2022-09-14T18:11:21;97966.31;;;16.50;85.43
57000;BME280;42891;50.006;21.964;2022-09-14T18:15:22;97959.56;;;16.48;85.56
57000;BME280;42891;50.006;21.964;2022-09-14T18:19:23;97952.19;;;16.50;85.83
57000;BME280;42891;50.006;21.964;2022-09-14T18:23:23;97934.06;;;16.25;86.77
57000;BME280;42891;50.006;21.964;2022-09-14T18:27:24;97938.75;;;16.16;87.59
57000;BME280;42891;50.006;21.964;2022-09-14T18:31:26;97923.03;;;16.28;87.21
57000;BME280;42891;50.006;21.964;2022-09-14T18:35:26;97923.44;;;16.32;86.86
57000;BME280;42891;50.006;21.964;2022-09-14T18:39:27;97946.78;;;16.36;86.93
57000;BME280;42891;50.006;21.964;2022-09-14T18:43:28;97948.63;;;16.29;87.63
57000;BME280;42891;50.006;21.964;2022-09-14T18:47:28;97934.72;;;16.34;87.70
57000;BME280;42891;50.006;21.964;2022-09-14T18:51:30;97931.84;;;16.35;87.75
57000;BME280;42891;50.006;21.964;2022-09-14T18:55:31;97923.84;;;16.29;88.26
57000;BME280;42891;50.006;21.964;2022-09-14T18:59:32;97919.50;;;16.14;88.41
57000;BME280;42891;50.006;21.964;2022-09-14T19:03:32;97905.97;;;16.23;88.38
57000;BME280;42891;50.006;21.964;2022-09-14T19:07:36;97920.78;;;16.32;88.00
57000;BME280;42891;50.006;21.964;2022-09-14T19:11:37;97926.47;;;16.22;88.76
57000;BME280;42891;50.006;21.964;2022-09-14T19:15:38;97919.31;;;16.29;88.50
57000;BME280;42891;50.006;21.964;2022-09-14T19:19:42;97939.19;;;16.20;88.75
57000;BME280;42891;50.006;21.964;2022-09-14T19:23:42;97909.84;;;16.13;89.02
57000;BME280;42891;50.006;21.964;2022-09-14T19:27:43;97909.72;;;16.28;88.63
57000;BME280;42891;50.006;21.964;2022-09-14T19:31:43;97901.47;;;16.23;88.98
57000;BME280;42891;50.006;21.964;2022-09-14T19:35:44;97893.72;;;16.28;89.03
57000;BME280;42891;50.006;21.964;2022-09-14T19:39:45;97887.16;;;16.31;88.85
57000;BME280;42891;50.006;21.964;2022-09-14T19:43:45;97892.88;;;16.28;89.41
57000;BME280;42891;50.006;21.964;2022-09-14T19:47:46;97906.16;;;16.14;90.11
57000;BME280;42891;50.006;21.964;2022-09-14T19:51:47;97907.41;;;16.25;89.83
57000;BME280;42891;50.006;21.964;2022-09-14T19:55:47;97901.06;;;16.26;89.67
57000;BME280;42891;50.006;21.964;2022-09-14T19:59:47;97897.78;;;16.17;89.99
57000;BME280;42891;50.006;21.964;2022-09-14T20:03:48;97894.91;;;16.19;89.56
57000;BME280;42891;50.006;21.964;2022-09-14T20:07:48;97897.38;;;16.21;90.02
57000;BME280;42891;50.006;21.964;2022-09-14T20:11:50;97899.06;;;16.28;89.56
57000;BME280;42891;50.006;21.964;2022-09-14T20:15:51;97912.16;;;16.36;89.81
57000;BME280;42891;50.006;21.964;2022-09-14T20:19:52;97878.78;;;16.41;88.75
57000;BME280;42891;50.006;21.964;2022-09-14T20:23:58;97883.50;;;16.39;89.21
57000;BME280;42891;50.006;21.964;2022-09-14T20:27:59;97881.66;;;16.46;88.87
57000;BME280;42891;50.006;21.964;2022-09-14T20:32:01;97874.69;;;16.38;88.83
57000;BME280;42891;50.006;21.964;2022-09-14T20:36:05;97867.56;;;16.52;88.51
57000;BME280;42891;50.006;21.964;2022-09-14T20:40:06;97878.00;;;16.47;88.67
57000;BME280;42891;50.006;21.964;2022-09-14T20:44:07;97881.66;;;16.46;89.20
57000;BME280;42891;50.006;21.964;2022-09-14T20:48:07;97880.22;;;16.43;89.29
57000;BME280;42891;50.006;21.964;2022-09-14T20:52:07;97865.88;;;16.38;89.43
57000;BME280;42891;50.006;21.964;2022-09-14T20:56:13;97860.16;;;16.47;88.69
57000;BME280;42891;50.006;21.964;2022-09-14T21:00:14;97864.06;;;16.51;88.51
57000;BME280;42891;50.006;21.964;2022-09-14T21:04:20;97873.25;;;16.49;88.74
57000;BME280;42891;50.006;21.964;2022-09-14T21:08:21;97872.06;;;16.58;88.36
57000;BME280;42891;50.006;21.964;2022-09-14T21:12:22;97869.00;;;16.61;88.02
57000;BME280;42891;50.006;21.964;2022-09-14T21:16:34;97861.81;;;16.55;88.61
57000;BME280;42891;50.006;21.964;2022-09-14T21:20:36;97852.59;;;16.51;88.99
57000;BME280;42891;50.006;21.964;2022-09-14T21:24:37;97850.53;;;16.40;89.54
57000;BME280;42891;50.006;21.964;2022-09-14T21:28:40;97853.78;;;16.28;90.22
57000;BME280;42891;50.006;21.964;2022-09-14T21:32:45;97865.47;;;16.41;90.03
57000;BME280;42891;50.006;21.964;2022-09-14T21:36:48;97860.31;;;16.26;90.72
57000;BME280;42891;50.006;21.964;2022-09-14T21:40:50;97851.75;;;16.37;90.24
57000;BME280;42891;50.006;21.964;2022-09-14T21:44:52;97833.03;;;16.17;90.96
57000;BME280;42891;50.006;21.964;2022-09-14T21:48:53;97822.19;;;16.12;91.55
57000;BME280;42891;50.006;21.964;2022-09-14T21:52:54;97818.91;;;16.23;91.11
57000;BME280;42891;50.006;21.964;2022-09-14T21:56:54;97828.13;;;16.21;91.38
57000;BME280;42891;50.006;21.964;2022-09-14T22:00:59;97839.38;;;16.23;91.30
57000;BME280;42891;50.006;21.964;2022-09-14T22:05:00;97822.19;;;16.25;91.56
57000;BME280;42891;50.006;21.964;2022-09-14T22:09:02;97814.84;;;16.27;91.08
57000;BME280;42891;50.006;21.964;2022-09-14T22:13:02;97843.72;;;16.30;91.28
57000;BME280;42891;50.006;21.964;2022-09-14T22:17:03;97812.94;;;16.08;91.92
57000;BME280;42891;50.006;21.964;2022-09-14T22:21:04;97821.13;;;16.13;92.02
57000;BME280;42891;50.006;21.964;2022-09-14T22:25:05;97816.47;;;16.22;91.91
57000;BME280;42891;50.006;21.964;2022-09-14T22:29:07;97809.50;;;16.21;91.96
57000;BME280;42891;50.006;21.964;2022-09-14T22:33:12;97808.03;;;16.18;91.79
57000;BME280;42891;50.006;21.964;2022-09-14T22:37:12;97815.25;;;16.24;91.79
57000;BME280;42891;50.006;21.964;2022-09-14T22:41:15;97823.84;;;16.33;91.76
57000;BME280;42891;50.006;21.964;2022-09-14T22:45:18;97834.13;;;16.43;91.15
57000;BME280;42891;50.006;21.964;2022-09-14T22:49:18;97830.84;;;16.34;91.48
57000;BME280;42891;50.006;21.964;2022-09-14T22:53:20;97829.00;;;16.41;91.23
57000;BME280;42891;50.006;21.964;2022-09-14T22:57:21;97826.31;;;16.34;91.71
57000;BME280;42891;50.006;21.964;2022-09-14T23:01:31;97813.41;;;16.45;91.38
57000;BME280;42891;50.006;21.964;2022-09-14T23:05:32;97798.03;;;16.33;91.31
57000;BME280;42891;50.006;21.964;2022-09-14T23:09:33;97808.94;;;16.45;91.25
57000;BME280;42891;50.006;21.964;2022-09-14T23:13:34;97804.41;;;16.46;91.45